sensor_id;sensor_type;location;lat;lon;timestamp;P1;durP1;ratioP1;P2;durP2;ratioP2
82926;SDS011;72788;40.218;44.486;2023-09-18T00:01:53;8.13;;;2.15;;
82926;SDS011;72788;40.218;44.486;2023-09-18T00:04:18;7.43;;;1.98;;
82926;SDS011;72788;40.218;44.486;2023-09-18T00:06:44;9.07;;;1.95;;
82926;SDS011;72788;40.218;44.486;2023-09-18T00:09:10;7.30;;;1.90;;
82926;SDS011;72788;40.218;44.486;2023-09-18T00:11:38;6.35;;;2.03;;
82926;SDS011;72788;40.218;44.486;2023-09-18T00:14:04;7.22;;;1.90;;
82926;SDS011;72788;40.218;44.486;2023-09-18T00:16:30;7.90;;;1.70;;
82926;SDS011;72788;40.218;44.486;2023-09-18T00:18:56;7.40;;;1.83;;
82926;SDS011;72788;40.218;44.486;2023-09-18T00:21:22;8.32;;;1.65;;
82926;SDS011;72788;40.218;44.486;2023-09-18T00:23:50;8.05;;;2.10;;
82926;SDS011;72788;40.218;44.486;2023-09-18T00:26:16;6.35;;;1.90;;
82926;SDS011;72788;40.218;44.486;2023-09-18T00:28:42;6.25;;;2.38;;
82926;SDS011;72788;40.218;44.486;2023-09-18T00:31:08;5.90;;;1.80;;
82926;SDS011;72788;40.218;44.486;2023-09-18T00:33:34;5.90;;;1.65;;
82926;SDS011;72788;40.218;44.486;2023-09-18T00:36:00;5.65;;;1.80;;
82926;SDS011;72788;40.218;44.486;2023-09-18T00:38:26;6.47;;;2.03;;
82926;SDS011;72788;40.218;44.486;2023-09-18T00:40:51;6.55;;;1.73;;
82926;SDS011;72788;40.218;44.486;2023-09-18T00:43:17;6.40;;;1.85;;
82926;SDS011;72788;40.218;44.486;2023-09-18T00:45:44;7.28;;;2.38;;
82926;SDS011;72788;40.218;44.486;2023-09-18T00:48:11;5.30;;;1.60;;
82926;SDS011;72788;40.218;44.486;2023-09-18T00:50:37;5.93;;;1.77;;
82926;SDS011;72788;40.218;44.486;2023-09-18T00:53:03;7.07;;;1.60;;
82926;SDS011;72788;40.218;44.486;2023-09-18T00:55:30;7.40;;;1.80;;
82926;SDS011;72788;40.218;44.486;2023-09-18T00:57:57;7.40;;;1.80;;
82926;SDS011;72788;40.218;44.486;2023-09-18T01:00:23;7.65;;;1.80;;
82926;SDS011;72788;40.218;44.486;2023-09-18T01:02:49;6.63;;;1.80;;
82926;SDS011;72788;40.218;44.486;2023-09-18T01:05:15;5.18;;;1.60;;
82926;SDS011;72788;40.218;44.486;2023-09-18T01:07:45;6.60;;;1.92;;
82926;SDS011;72788;40.218;44.486;2023-09-18T01:10:11;5.65;;;1.70;;
82926;SDS011;72788;40.218;44.486;2023-09-18T01:12:44;5.60;;;1.70;;
82926;SDS011;72788;40.218;44.486;2023-09-18T01:18:00;7.78;;;1.95;;
82926;SDS011;72788;40.218;44.486;2023-09-18T01:20:26;6.07;;;1.63;;
82926;SDS011;72788;40.218;44.486;2023-09-18T01:22:52;6.55;;;2.05;;
82926;SDS011;72788;40.218;44.486;2023-09-18T01:25:18;6.75;;;1.52;;
82926;SDS011;72788;40.218;44.486;2023-09-18T01:27:44;7.63;;;1.67;;
82926;SDS011;72788;40.218;44.486;2023-09-18T01:30:09;6.55;;;1.77;;
82926;SDS011;72788;40.218;44.486;2023-09-18T01:32:35;6.63;;;1.98;;
82926;SDS011;72788;40.218;44.486;2023-09-18T01:35:03;7.15;;;1.67;;
82926;SDS011;72788;40.218;44.486;2023-09-18T01:37:32;6.43;;;1.77;;
82926;SDS011;72788;40.218;44.486;2023-09-18T01:40:00;5.47;;;1.80;;
82926;SDS011;72788;40.218;44.486;2023-09-18T01:42:31;6.35;;;1.75;;
82926;SDS011;72788;40.218;44.486;2023-09-18T01:44:58;6.72;;;1.83;;
82926;SDS011;72788;40.218;44.486;2023-09-18T01:47:24;6.03;;;1.70;;
82926;SDS011;72788;40.218;44.486;2023-09-18T01:49:50;7.78;;;2.40;;
82926;SDS011;72788;40.218;44.486;2023-09-18T01:52:15;5.97;;;1.73;;
82926;SDS011;72788;40.218;44.486;2023-09-18T01:54:41;6.00;;;1.80;;
82926;SDS011;72788;40.218;44.486;2023-09-18T01:57:07;5.32;;;1.63;;
82926;SDS011;72788;40.218;44.486;2023-09-18T01:59:33;5.65;;;1.80;;
82926;SDS011;72788;40.218;44.486;2023-09-18T02:01:59;6.82;;;2.30;;
82926;SDS011;72788;40.218;44.486;2023-09-18T02:04:26;9.30;;;1.95;;
82926;SDS011;72788;40.218;44.486;2023-09-18T02:06:52;6.72;;;1.88;;
82926;SDS011;72788;40.218;44.486;2023-09-18T02:09:18;8.77;;;1.90;;
82926;SDS011;72788;40.218;44.486;2023-09-18T02:11:44;6.05;;;1.75;;
82926;SDS011;72788;40.218;44.486;2023-09-18T02:14:11;7.13;;;2.10;;
82926;SDS011;72788;40.218;44.486;2023-09-18T02:16:37;5.68;;;1.83;;
82926;SDS011;72788;40.218;44.486;2023-09-18T02:19:06;5.32;;;1.50;;
82926;SDS011;72788;40.218;44.486;2023-09-18T02:21:33;6.40;;;1.70;;
82926;SDS011;72788;40.218;44.486;2023-09-18T02:23:59;7.75;;;2.03;;
82926;SDS011;72788;40.218;44.486;2023-09-18T02:26:25;7.50;;;2.00;;
82926;SDS011;72788;40.218;44.486;2023-09-18T02:28:52;6.03;;;1.65;;
82926;SDS011;72788;40.218;44.486;2023-09-18T02:31:19;6.75;;;2.00;;
82926;SDS011;72788;40.218;44.486;2023-09-18T02:33:45;7.10;;;1.90;;
82926;SDS011;72788;40.218;44.486;2023-09-18T02:36:14;6.45;;;2.20;;
82926;SDS011;72788;40.218;44.486;2023-09-18T02:38:40;7.85;;;1.90;;
82926;SDS011;72788;40.218;44.486;2023-09-18T02:41:05;9.00;;;2.03;;
82926;SDS011;72788;40.218;44.486;2023-09-18T02:43:31;8.43;;;2.00;;
82926;SDS011;72788;40.218;44.486;2023-09-18T02:45:57;6.95;;;1.92;;
82926;SDS011;72788;40.218;44.486;2023-09-18T02:48:22;6.72;;;2.13;;
82926;SDS011;72788;40.218;44.486;2023-09-18T02:50:48;6.57;;;1.80;;
82926;SDS011;72788;40.218;44.486;2023-09-18T02:53:21;6.05;;;2.03;;
82926;SDS011;72788;40.218;44.486;2023-09-18T02:55:49;5.97;;;1.77;;
82926;SDS011;72788;40.218;44.486;2023-09-18T02:58:23;8.10;;;1.83;;
82926;SDS011;72788;40.218;44.486;2023-09-18T03:00:54;6.97;;;1.92;;
82926;SDS011;72788;40.218;44.486;2023-09-18T03:03:21;6.65;;;2.20;;
82926;SDS011;72788;40.218;44.486;2023-09-18T03:05:47;5.80;;;1.80;;
82926;SDS011;72788;40.218;44.486;2023-09-18T03:08:13;9.57;;;1.90;;
82926;SDS011;72788;40.218;44.486;2023-09-18T03:10:40;8.75;;;2.70;;
82926;SDS011;72788;40.218;44.486;2023-09-18T03:13:07;11.63;;;2.40;;
82926;SDS011;72788;40.218;44.486;2023-09-18T03:15:33;7.32;;;2.53;;
82926;SDS011;72788;40.218;44.486;2023-09-18T03:18:00;6.45;;;2.00;;
82926;SDS011;72788;40.218;44.486;2023-09-18T03:20:27;10.32;;;2.22;;
82926;SDS011;72788;40.218;44.486;2023-09-18T03:22:54;6.10;;;1.95;;
82926;SDS011;72788;40.218;44.486;2023-09-18T03:25:22;8.07;;;1.90;;
82926;SDS011;72788;40.218;44.486;2023-09-18T03:27:49;5.45;;;1.90;;
82926;SDS011;72788;40.218;44.486;2023-09-18T03:30:16;7.50;;;2.10;;
82926;SDS011;72788;40.218;44.486;2023-09-18T03:32:43;7.85;;;2.50;;
82926;SDS011;72788;40.218;44.486;2023-09-18T03:35:10;6.05;;;2.00;;
82926;SDS011;72788;40.218;44.486;2023-09-18T03:37:43;7.22;;;1.80;;
82926;SDS011;72788;40.218;44.486;2023-09-18T03:40:09;7.05;;;2.28;;
82926;SDS011;72788;40.218;44.486;2023-09-18T03:42:35;6.18;;;2.13;;
82926;SDS011;72788;40.218;44.486;2023-09-18T03:45:01;7.15;;;2.08;;
82926;SDS011;72788;40.218;44.486;2023-09-18T03:47:28;7.65;;;1.80;;
82926;SDS011;72788;40.218;44.486;2023-09-18T03:49:54;6.63;;;2.00;;
82926;SDS011;72788;40.218;44.486;2023-09-18T03:52:19;7.53;;;2.00;;
82926;SDS011;72788;40.218;44.486;2023-09-18T03:54:45;8.20;;;2.42;;
82926;SDS011;72788;40.218;44.486;2023-09-18T03:57:10;8.15;;;2.15;;
82926;SDS011;72788;40.218;44.486;2023-09-18T03:59:36;7.15;;;2.20;;
82926;SDS011;72788;40.218;44.486;2023-09-18T04:02:02;8.38;;;2.20;;
82926;SDS011;72788;40.218;44.486;2023-09-18T04:04:28;8.30;;;1.90;;
82926;SDS011;72788;40.218;44.486;2023-09-18T04:06:55;9.48;;;2.45;;
82926;SDS011;72788;40.218;44.486;2023-09-18T04:09:20;6.97;;;2.40;;
82926;SDS011;72788;40.218;44.486;2023-09-18T04:11:46;9.07;;;2.20;;
82926;SDS011;72788;40.218;44.486;2023-09-18T04:14:11;7.97;;;2.10;;
82926;SDS011;72788;40.218;44.486;2023-09-18T04:16:37;5.88;;;2.10;;
82926;SDS011;72788;40.218;44.486;2023-09-18T04:19:05;20.67;;;2.88;;
82926;SDS011;72788;40.218;44.486;2023-09-18T04:21:31;9.55;;;2.67;;
82926;SDS011;72788;40.218;44.486;2023-09-18T04:23:56;11.75;;;3.30;;
82926;SDS011;72788;40.218;44.486;2023-09-18T04:26:26;12.80;;;3.05;;
82926;SDS011;72788;40.218;44.486;2023-09-18T04:28:59;12.75;;;3.45;;
82926;SDS011;72788;40.218;44.486;2023-09-18T04:31:26;13.85;;;3.28;;
82926;SDS011;72788;40.218;44.486;2023-09-18T04:33:52;9.05;;;3.03;;
82926;SDS011;72788;40.218;44.486;2023-09-18T04:36:19;11.45;;;3.47;;
82926;SDS011;72788;40.218;44.486;2023-09-18T04:38:45;15.48;;;3.83;;
82926;SDS011;72788;40.218;44.486;2023-09-18T04:41:11;14.60;;;5.22;;
82926;SDS011;72788;40.218;44.486;2023-09-18T04:43:39;11.23;;;3.80;;
82926;SDS011;72788;40.218;44.486;2023-09-18T04:46:06;10.45;;;3.25;;
82926;SDS011;72788;40.218;44.486;2023-09-18T04:48:32;10.82;;;4.05;;
82926;SDS011;72788;40.218;44.486;2023-09-18T04:50:59;10.13;;;3.47;;
82926;SDS011;72788;40.218;44.486;2023-09-18T04:53:26;12.10;;;3.67;;
82926;SDS011;72788;40.218;44.486;2023-09-18T04:55:52;12.77;;;3.38;;
82926;SDS011;72788;40.218;44.486;2023-09-18T04:58:19;13.32;;;4.50;;
82926;SDS011;72788;40.218;44.486;2023-09-18T05:00:45;10.30;;;3.35;;
82926;SDS011;72788;40.218;44.486;2023-09-18T05:03:11;15.50;;;4.97;;
82926;SDS011;72788;40.218;44.486;2023-09-18T05:05:38;13.68;;;4.07;;
82926;SDS011;72788;40.218;44.486;2023-09-18T05:08:05;12.80;;;3.72;;
82926;SDS011;72788;40.218;44.486;2023-09-18T05:10:33;12.98;;;3.47;;
82926;SDS011;72788;40.218;44.486;2023-09-18T05:13:02;13.07;;;3.85;;
82926;SDS011;72788;40.218;44.486;2023-09-18T05:15:28;9.18;;;3.40;;
82926;SDS011;72788;40.218;44.486;2023-09-18T05:17:54;12.90;;;3.58;;
82926;SDS011;72788;40.218;44.486;2023-09-18T05:20:23;12.73;;;3.70;;
82926;SDS011;72788;40.218;44.486;2023-09-18T05:22:53;8.82;;;3.13;;
82926;SDS011;72788;40.218;44.486;2023-09-18T05:25:19;12.00;;;3.80;;
82926;SDS011;72788;40.218;44.486;2023-09-18T05:27:47;13.32;;;3.53;;
82926;SDS011;72788;40.218;44.486;2023-09-18T05:30:19;17.30;;;3.63;;
82926;SDS011;72788;40.218;44.486;2023-09-18T05:32:53;12.57;;;3.67;;
82926;SDS011;72788;40.218;44.486;2023-09-18T05:35:19;9.80;;;3.25;;
82926;SDS011;72788;40.218;44.486;2023-09-18T05:37:46;12.00;;;3.13;;
82926;SDS011;72788;40.218;44.486;2023-09-18T05:40:12;10.10;;;2.67;;
82926;SDS011;72788;40.218;44.486;2023-09-18T05:42:39;8.45;;;2.53;;
82926;SDS011;72788;40.218;44.486;2023-09-18T05:45:10;11.50;;;2.70;;
82926;SDS011;72788;40.218;44.486;2023-09-18T05:47:37;10.85;;;3.05;;
82926;SDS011;72788;40.218;44.486;2023-09-18T05:50:04;13.60;;;3.30;;
82926;SDS011;72788;40.218;44.486;2023-09-18T05:52:32;10.85;;;3.28;;
82926;SDS011;72788;40.218;44.486;2023-09-18T05:54:59;19.88;;;3.13;;
82926;SDS011;72788;40.218;44.486;2023-09-18T05:57:28;11.68;;;2.90;;
82926;SDS011;72788;40.218;44.486;2023-09-18T05:59:56;8.98;;;2.80;;
82926;SDS011;72788;40.218;44.486;2023-09-18T06:02:22;11.45;;;2.97;;
82926;SDS011;72788;40.218;44.486;2023-09-18T06:04:54;10.70;;;2.95;;
82926;SDS011;72788;40.218;44.486;2023-09-18T06:09:55;8.38;;;2.40;;
82926;SDS011;72788;40.218;44.486;2023-09-18T06:12:22;9.60;;;2.72;;
82926;SDS011;72788;40.218;44.486;2023-09-18T06:14:48;7.75;;;3.20;;
82926;SDS011;72788;40.218;44.486;2023-09-18T06:17:14;12.52;;;3.50;;
82926;SDS011;72788;40.218;44.486;2023-09-18T06:19:41;14.73;;;2.80;;
82926;SDS011;72788;40.218;44.486;2023-09-18T06:22:07;10.52;;;2.63;;
82926;SDS011;72788;40.218;44.486;2023-09-18T06:24:36;9.45;;;2.80;;
82926;SDS011;72788;40.218;44.486;2023-09-18T06:27:02;10.70;;;3.10;;
82926;SDS011;72788;40.218;44.486;2023-09-18T06:29:29;12.43;;;2.90;;
82926;SDS011;72788;40.218;44.486;2023-09-18T06:31:55;15.68;;;2.80;;
82926;SDS011;72788;40.218;44.486;2023-09-18T06:34:21;6.78;;;2.42;;
82926;SDS011;72788;40.218;44.486;2023-09-18T06:36:47;8.60;;;2.83;;
82926;SDS011;72788;40.218;44.486;2023-09-18T06:39:12;9.02;;;2.60;;
82926;SDS011;72788;40.218;44.486;2023-09-18T06:41:38;8.40;;;2.50;;
82926;SDS011;72788;40.218;44.486;2023-09-18T06:44:04;9.70;;;3.25;;
82926;SDS011;72788;40.218;44.486;2023-09-18T06:46:30;11.23;;;2.97;;
82926;SDS011;72788;40.218;44.486;2023-09-18T06:48:55;8.38;;;2.53;;
82926;SDS011;72788;40.218;44.486;2023-09-18T06:51:21;11.23;;;3.10;;
82926;SDS011;72788;40.218;44.486;2023-09-18T06:53:48;10.77;;;2.92;;
82926;SDS011;72788;40.218;44.486;2023-09-18T06:56:13;9.80;;;3.03;;
82926;SDS011;72788;40.218;44.486;2023-09-18T06:58:39;9.80;;;3.05;;
82926;SDS011;72788;40.218;44.486;2023-09-18T07:01:04;11.38;;;2.60;;
82926;SDS011;72788;40.218;44.486;2023-09-18T07:03:34;9.38;;;2.92;;
82926;SDS011;72788;40.218;44.486;2023-09-18T07:06:01;9.00;;;2.75;;
82926;SDS011;72788;40.218;44.486;2023-09-18T07:08:29;8.93;;;2.97;;
82926;SDS011;72788;40.218;44.486;2023-09-18T07:10:56;9.93;;;2.88;;
82926;SDS011;72788;40.218;44.486;2023-09-18T07:13:22;11.18;;;2.80;;
82926;SDS011;72788;40.218;44.486;2023-09-18T07:15:47;11.80;;;3.75;;
82926;SDS011;72788;40.218;44.486;2023-09-18T07:18:13;6.93;;;2.53;;
82926;SDS011;72788;40.218;44.486;2023-09-18T07:20:45;13.70;;;3.65;;
82926;SDS011;72788;40.218;44.486;2023-09-18T07:23:11;10.63;;;3.42;;
82926;SDS011;72788;40.218;44.486;2023-09-18T07:25:37;12.32;;;4.95;;
82926;SDS011;72788;40.218;44.486;2023-09-18T07:28:06;9.00;;;2.90;;
82926;SDS011;72788;40.218;44.486;2023-09-18T07:30:33;10.07;;;3.10;;
82926;SDS011;72788;40.218;44.486;2023-09-18T07:32:58;9.57;;;3.22;;
82926;SDS011;72788;40.218;44.486;2023-09-18T07:35:25;9.27;;;2.97;;
82926;SDS011;72788;40.218;44.486;2023-09-18T07:37:51;13.88;;;4.30;;
82926;SDS011;72788;40.218;44.486;2023-09-18T07:40:17;10.98;;;3.08;;
82926;SDS011;72788;40.218;44.486;2023-09-18T07:42:43;13.20;;;3.17;;
82926;SDS011;72788;40.218;44.486;2023-09-18T07:45:11;10.07;;;3.28;;
82926;SDS011;72788;40.218;44.486;2023-09-18T07:47:37;10.55;;;3.42;;
82926;SDS011;72788;40.218;44.486;2023-09-18T07:50:03;13.52;;;4.50;;
82926;SDS011;72788;40.218;44.486;2023-09-18T07:52:30;7.78;;;2.45;;
82926;SDS011;72788;40.218;44.486;2023-09-18T07:54:56;14.63;;;2.90;;
82926;SDS011;72788;40.218;44.486;2023-09-18T07:57:25;10.70;;;3.00;;
82926;SDS011;72788;40.218;44.486;2023-09-18T07:59:53;11.98;;;3.00;;
82926;SDS011;72788;40.218;44.486;2023-09-18T08:02:19;10.27;;;3.17;;
82926;SDS011;72788;40.218;44.486;2023-09-18T08:04:46;11.23;;;3.10;;
82926;SDS011;72788;40.218;44.486;2023-09-18T08:07:12;11.55;;;3.28;;
82926;SDS011;72788;40.218;44.486;2023-09-18T08:09:38;11.68;;;3.25;;
82926;SDS011;72788;40.218;44.486;2023-09-18T08:12:04;10.00;;;3.05;;
82926;SDS011;72788;40.218;44.486;2023-09-18T08:14:30;11.93;;;2.97;;
82926;SDS011;72788;40.218;44.486;2023-09-18T08:17:00;18.02;;;3.67;;
82926;SDS011;72788;40.218;44.486;2023-09-18T08:19:26;16.92;;;3.20;;
82926;SDS011;72788;40.218;44.486;2023-09-18T08:21:53;12.55;;;3.50;;
82926;SDS011;72788;40.218;44.486;2023-09-18T08:24:22;13.27;;;3.42;;
82926;SDS011;72788;40.218;44.486;2023-09-18T08:26:48;11.85;;;3.90;;
82926;SDS011;72788;40.218;44.486;2023-09-18T08:29:14;18.40;;;6.07;;
82926;SDS011;72788;40.218;44.486;2023-09-18T08:31:40;13.10;;;4.22;;
82926;SDS011;72788;40.218;44.486;2023-09-18T08:34:06;11.20;;;3.15;;
82926;SDS011;72788;40.218;44.486;2023-09-18T08:36:32;10.30;;;3.15;;
82926;SDS011;72788;40.218;44.486;2023-09-18T08:38:58;9.07;;;3.30;;
82926;SDS011;72788;40.218;44.486;2023-09-18T08:41:24;10.73;;;3.45;;
82926;SDS011;72788;40.218;44.486;2023-09-18T08:43:52;10.15;;;3.47;;
82926;SDS011;72788;40.218;44.486;2023-09-18T08:46:24;10.48;;;3.00;;
82926;SDS011;72788;40.218;44.486;2023-09-18T08:48:50;9.98;;;3.00;;
82926;SDS011;72788;40.218;44.486;2023-09-18T08:51:18;9.82;;;2.78;;
82926;SDS011;72788;40.218;44.486;2023-09-18T08:53:44;10.27;;;4.10;;
82926;SDS011;72788;40.218;44.486;2023-09-18T08:56:10;8.15;;;2.72;;
82926;SDS011;72788;40.218;44.486;2023-09-18T08:58:39;14.65;;;3.10;;
82926;SDS011;72788;40.218;44.486;2023-09-18T09:01:10;9.68;;;2.63;;
82926;SDS011;72788;40.218;44.486;2023-09-18T09:03:37;12.02;;;3.25;;
82926;SDS011;72788;40.218;44.486;2023-09-18T09:06:10;26.83;;;3.15;;
82926;SDS011;72788;40.218;44.486;2023-09-18T09:08:37;9.48;;;2.60;;
82926;SDS011;72788;40.218;44.486;2023-09-18T09:11:03;12.23;;;3.40;;
82926;SDS011;72788;40.218;44.486;2023-09-18T09:13:29;8.93;;;2.97;;
82926;SDS011;72788;40.218;44.486;2023-09-18T09:15:56;8.93;;;2.85;;
82926;SDS011;72788;40.218;44.486;2023-09-18T09:18:24;13.23;;;4.20;;
82926;SDS011;72788;40.218;44.486;2023-09-18T09:23:25;9.73;;;2.53;;
82926;SDS011;72788;40.218;44.486;2023-09-18T09:25:51;9.70;;;2.72;;
82926;SDS011;72788;40.218;44.486;2023-09-18T09:28:26;8.73;;;2.58;;
82926;SDS011;72788;40.218;44.486;2023-09-18T09:30:59;11.40;;;2.42;;
82926;SDS011;72788;40.218;44.486;2023-09-18T09:33:28;19.13;;;2.63;;
82926;SDS011;72788;40.218;44.486;2023-09-18T09:35:55;8.60;;;2.38;;
82926;SDS011;72788;40.218;44.486;2023-09-18T09:38:22;11.95;;;2.58;;
82926;SDS011;72788;40.218;44.486;2023-09-18T09:40:54;9.77;;;2.70;;
82926;SDS011;72788;40.218;44.486;2023-09-18T09:43:19;7.65;;;2.35;;
82926;SDS011;72788;40.218;44.486;2023-09-18T09:45:46;8.32;;;2.33;;
82926;SDS011;72788;40.218;44.486;2023-09-18T09:48:12;9.68;;;3.53;;
82926;SDS011;72788;40.218;44.486;2023-09-18T09:50:44;9.68;;;2.47;;
82926;SDS011;72788;40.218;44.486;2023-09-18T09:53:15;6.32;;;2.03;;
82926;SDS011;72788;40.218;44.486;2023-09-18T09:55:41;7.25;;;2.25;;
82926;SDS011;72788;40.218;44.486;2023-09-18T09:58:08;12.90;;;2.80;;
82926;SDS011;72788;40.218;44.486;2023-09-18T10:00:41;9.60;;;2.75;;
82926;SDS011;72788;40.218;44.486;2023-09-18T10:03:11;9.65;;;2.80;;
82926;SDS011;72788;40.218;44.486;2023-09-18T10:05:39;9.05;;;2.83;;
82926;SDS011;72788;40.218;44.486;2023-09-18T10:10:41;7.85;;;2.58;;
82926;SDS011;72788;40.218;44.486;2023-09-18T10:13:12;11.63;;;2.35;;
82926;SDS011;72788;40.218;44.486;2023-09-18T10:15:42;10.15;;;2.78;;
82926;SDS011;72788;40.218;44.486;2023-09-18T10:18:22;12.68;;;3.15;;
82926;SDS011;72788;40.218;44.486;2023-09-18T10:20:56;11.10;;;2.60;;
82926;SDS011;72788;40.218;44.486;2023-09-18T10:23:48;8.85;;;2.80;;
82926;SDS011;72788;40.218;44.486;2023-09-18T10:26:18;7.63;;;2.65;;
82926;SDS011;72788;40.218;44.486;2023-09-18T10:28:49;8.98;;;2.80;;
82926;SDS011;72788;40.218;44.486;2023-09-18T10:31:18;12.05;;;3.53;;
82926;SDS011;72788;40.218;44.486;2023-09-18T10:33:45;11.13;;;2.80;;
82926;SDS011;72788;40.218;44.486;2023-09-18T10:36:13;11.38;;;3.47;;
82926;SDS011;72788;40.218;44.486;2023-09-18T10:38:42;12.60;;;3.25;;
82926;SDS011;72788;40.218;44.486;2023-09-18T10:41:15;11.27;;;2.92;;
82926;SDS011;72788;40.218;44.486;2023-09-18T10:43:44;10.40;;;2.83;;
82926;SDS011;72788;40.218;44.486;2023-09-18T10:46:11;10.80;;;3.08;;
82926;SDS011;72788;40.218;44.486;2023-09-18T10:48:39;8.98;;;2.70;;
82926;SDS011;72788;40.218;44.486;2023-09-18T10:51:07;7.97;;;2.63;;
82926;SDS011;72788;40.218;44.486;2023-09-18T10:53:34;9.13;;;2.60;;
82926;SDS011;72788;40.218;44.486;2023-09-18T10:56:00;7.88;;;2.60;;
82926;SDS011;72788;40.218;44.486;2023-09-18T10:58:29;12.07;;;3.17;;
82926;SDS011;72788;40.218;44.486;2023-09-18T11:00:55;6.88;;;2.50;;
82926;SDS011;72788;40.218;44.486;2023-09-18T11:03:24;10.95;;;2.55;;
82926;SDS011;72788;40.218;44.486;2023-09-18T11:06:01;12.27;;;2.58;;
82926;SDS011;72788;40.218;44.486;2023-09-18T11:11:08;8.75;;;2.60;;
82926;SDS011;72788;40.218;44.486;2023-09-18T11:13:40;9.20;;;3.45;;
82926;SDS011;72788;40.218;44.486;2023-09-18T11:16:18;9.27;;;3.00;;
82926;SDS011;72788;40.218;44.486;2023-09-18T11:21:25;9.40;;;2.80;;
82926;SDS011;72788;40.218;44.486;2023-09-18T11:23:58;13.98;;;3.15;;
82926;SDS011;72788;40.218;44.486;2023-09-18T11:26:31;11.85;;;3.83;;
82926;SDS011;72788;40.218;44.486;2023-09-18T11:28:59;9.20;;;3.28;;
82926;SDS011;72788;40.218;44.486;2023-09-18T11:34:22;11.05;;;3.03;;
82926;SDS011;72788;40.218;44.486;2023-09-18T11:36:51;10.75;;;3.20;;
82926;SDS011;72788;40.218;44.486;2023-09-18T11:39:37;13.88;;;5.85;;
82926;SDS011;72788;40.218;44.486;2023-09-18T11:42:08;27.23;;;9.13;;
82926;SDS011;72788;40.218;44.486;2023-09-18T11:44:38;17.55;;;3.50;;
82926;SDS011;72788;40.218;44.486;2023-09-18T11:47:12;11.68;;;2.65;;
82926;SDS011;72788;40.218;44.486;2023-09-18T11:49:53;12.70;;;2.58;;
82926;SDS011;72788;40.218;44.486;2023-09-18T11:54:49;8.52;;;2.38;;
82926;SDS011;72788;40.218;44.486;2023-09-18T11:57:17;9.05;;;2.55;;
82926;SDS011;72788;40.218;44.486;2023-09-18T11:59:43;11.32;;;2.65;;
82926;SDS011;72788;40.218;44.486;2023-09-18T12:02:11;7.30;;;2.55;;
82926;SDS011;72788;40.218;44.486;2023-09-18T12:04:45;10.98;;;2.85;;
82926;SDS011;72788;40.218;44.486;2023-09-18T12:07:12;10.45;;;2.80;;
82926;SDS011;72788;40.218;44.486;2023-09-18T12:09:38;11.32;;;2.63;;
82926;SDS011;72788;40.218;44.486;2023-09-18T12:12:07;8.25;;;2.58;;
82926;SDS011;72788;40.218;44.486;2023-09-18T12:14:34;8.88;;;2.10;;
82926;SDS011;72788;40.218;44.486;2023-09-18T12:17:00;8.73;;;2.30;;
82926;SDS011;72788;40.218;44.486;2023-09-18T12:19:31;9.43;;;2.53;;
82926;SDS011;72788;40.218;44.486;2023-09-18T12:21:59;8.95;;;2.65;;
82926;SDS011;72788;40.218;44.486;2023-09-18T12:24:25;12.65;;;2.92;;
82926;SDS011;72788;40.218;44.486;2023-09-18T12:26:51;8.93;;;2.40;;
82926;SDS011;72788;40.218;44.486;2023-09-18T12:29:18;15.25;;;3.05;;
82926;SDS011;72788;40.218;44.486;2023-09-18T12:31:45;9.15;;;2.58;;
82926;SDS011;72788;40.218;44.486;2023-09-18T12:34:15;7.88;;;2.42;;
82926;SDS011;72788;40.218;44.486;2023-09-18T12:36:45;12.45;;;2.38;;
82926;SDS011;72788;40.218;44.486;2023-09-18T12:39:12;10.95;;;2.58;;
82926;SDS011;72788;40.218;44.486;2023-09-18T12:41:41;8.57;;;2.30;;
82926;SDS011;72788;40.218;44.486;2023-09-18T12:44:11;6.50;;;2.00;;
82926;SDS011;72788;40.218;44.486;2023-09-18T12:46:39;11.35;;;2.80;;
82926;SDS011;72788;40.218;44.486;2023-09-18T12:49:15;10.63;;;2.40;;
82926;SDS011;72788;40.218;44.486;2023-09-18T12:51:41;10.35;;;2.40;;
82926;SDS011;72788;40.218;44.486;2023-09-18T12:54:07;11.30;;;2.13;;
82926;SDS011;72788;40.218;44.486;2023-09-18T12:56:33;12.95;;;2.65;;
82926;SDS011;72788;40.218;44.486;2023-09-18T12:59:07;13.65;;;2.58;;
82926;SDS011;72788;40.218;44.486;2023-09-18T13:01:33;13.00;;;2.50;;
82926;SDS011;72788;40.218;44.486;2023-09-18T13:03:59;7.30;;;2.28;;
82926;SDS011;72788;40.218;44.486;2023-09-18T13:06:30;9.93;;;2.70;;
82926;SDS011;72788;40.218;44.486;2023-09-18T13:08:56;10.18;;;2.30;;
82926;SDS011;72788;40.218;44.486;2023-09-18T13:11:56;7.78;;;2.53;;
82926;SDS011;72788;40.218;44.486;2023-09-18T13:14:23;9.35;;;2.17;;
82926;SDS011;72788;40.218;44.486;2023-09-18T13:16:52;12.40;;;2.72;;
82926;SDS011;72788;40.218;44.486;2023-09-18T13:19:18;14.75;;;2.90;;
82926;SDS011;72788;40.218;44.486;2023-09-18T13:21:50;46.92;;;3.33;;
82926;SDS011;72788;40.218;44.486;2023-09-18T13:24:26;15.98;;;2.38;;
82926;SDS011;72788;40.218;44.486;2023-09-18T13:26:53;10.25;;;2.10;;
82926;SDS011;72788;40.218;44.486;2023-09-18T13:29:19;9.07;;;2.20;;
82926;SDS011;72788;40.218;44.486;2023-09-18T13:31:45;10.27;;;2.45;;
82926;SDS011;72788;40.218;44.486;2023-09-18T13:34:11;8.27;;;2.45;;
82926;SDS011;72788;40.218;44.486;2023-09-18T13:36:37;13.43;;;2.10;;
82926;SDS011;72788;40.218;44.486;2023-09-18T13:39:03;10.55;;;2.05;;
82926;SDS011;72788;40.218;44.486;2023-09-18T13:41:29;9.77;;;2.45;;
82926;SDS011;72788;40.218;44.486;2023-09-18T13:43:56;18.50;;;2.70;;
82926;SDS011;72788;40.218;44.486;2023-09-18T13:46:22;13.57;;;2.55;;
82926;SDS011;72788;40.218;44.486;2023-09-18T13:48:48;8.82;;;2.83;;
82926;SDS011;72788;40.218;44.486;2023-09-18T13:51:14;8.45;;;2.50;;
82926;SDS011;72788;40.218;44.486;2023-09-18T13:53:40;14.98;;;2.72;;
82926;SDS011;72788;40.218;44.486;2023-09-18T13:56:06;11.27;;;1.90;;
82926;SDS011;72788;40.218;44.486;2023-09-18T13:58:32;13.93;;;2.03;;
82926;SDS011;72788;40.218;44.486;2023-09-18T14:00:58;9.93;;;2.28;;
82926;SDS011;72788;40.218;44.486;2023-09-18T14:03:24;13.18;;;2.03;;
82926;SDS011;72788;40.218;44.486;2023-09-18T14:05:50;9.32;;;1.95;;
82926;SDS011;72788;40.218;44.486;2023-09-18T14:08:17;7.40;;;2.03;;
82926;SDS011;72788;40.218;44.486;2023-09-18T14:10:43;8.45;;;2.17;;
82926;SDS011;72788;40.218;44.486;2023-09-18T14:13:09;7.85;;;2.00;;
82926;SDS011;72788;40.218;44.486;2023-09-18T14:15:35;11.23;;;2.33;;
82926;SDS011;72788;40.218;44.486;2023-09-18T14:18:02;11.88;;;2.30;;
82926;SDS011;72788;40.218;44.486;2023-09-18T14:20:28;10.75;;;2.20;;
82926;SDS011;72788;40.218;44.486;2023-09-18T14:22:54;11.52;;;2.70;;
82926;SDS011;72788;40.218;44.486;2023-09-18T14:25:20;9.18;;;2.10;;
82926;SDS011;72788;40.218;44.486;2023-09-18T14:27:47;10.77;;;2.95;;
82926;SDS011;72788;40.218;44.486;2023-09-18T14:30:13;8.93;;;2.58;;
82926;SDS011;72788;40.218;44.486;2023-09-18T14:32:39;6.47;;;2.00;;
82926;SDS011;72788;40.218;44.486;2023-09-18T14:35:05;14.23;;;2.50;;
82926;SDS011;72788;40.218;44.486;2023-09-18T14:37:33;9.07;;;2.22;;
82926;SDS011;72788;40.218;44.486;2023-09-18T14:40:00;9.25;;;2.33;;
82926;SDS011;72788;40.218;44.486;2023-09-18T14:42:25;9.30;;;2.53;;
82926;SDS011;72788;40.218;44.486;2023-09-18T14:44:51;11.10;;;3.30;;
82926;SDS011;72788;40.218;44.486;2023-09-18T14:47:17;9.77;;;2.88;;
82926;SDS011;72788;40.218;44.486;2023-09-18T14:49:42;17.85;;;2.70;;
82926;SDS011;72788;40.218;44.486;2023-09-18T14:52:11;8.25;;;2.15;;